Port Mouton, Canada
Current Conditions -  °F | °C
As of 12:00 PM on Friday 31 Oct 2014 (Local Time) from CYQI Reporting Station
Broken Clouds Broken Clouds  
Wind Chill: 52°   Ceiling: 4000
Heat Index: 52°   Visibility: 15mi
Dew Point: 45°   Wind: 6mph
Humidity: 76%   Direction: 100°E
Pressure: 30.03"   Gusts: NA
Location:  43.93°N, 64.85°W
Report Text: CYQI 311500Z 10005KT 15SM FEW015 BKN040 BKN250 11/07 A3003 RMK CU1SC6CI1 CU TR CI TR SLP170
Loading
Personal Weather Stations






























Interactive Weather Map
Tropical Storm Tracking
New forecast layout! Learn more

10-Day Weather Forecast

Advertisements
Track Severe Weather on mobile